Terminal Aerodrome Forecast
Issued by NWS

Home | Current Version | Previous Version | Text Only | Print | Product List | Glossary On
Versions: 1 2 3 4 5 6 7 8 9 10 11 12 13 14 15 16 17 18 19 20 21 22 23 24 25 26 27 28 29 30
000
FTUS42 KFFC 191333 CCA
TAFPDK
TAF COR
KPDK 191333Z 1914/2012 14006KT P6SM SCT005 BKN012
      TEMPO 1914/1918 VRB10G20KT 1SM TSRA BKN005CB
     FM191800 19010KT P6SM -SHRA BKN012 OVC025
      TEMPO 1920/1922 4SM -TSRA BKN010CB
     FM192200 22010KT P6SM VCSH BKN030
     FM200200 23006KT P6SM VCSH BKN015=

USA.gov is the U.S. government's official web portal to all federal, state and local government web resources and services.